sensor_id;sensor_type;location;lat;lon;timestamp;temperature;humidity
35700;DHT22;21818;51.078;12.108;2024-02-16T00:00:08;14.80;92.30
35700;DHT22;21818;51.078;12.108;2024-02-16T00:02:33;14.80;92.30
35700;DHT22;21818;51.078;12.108;2024-02-16T00:04:59;14.80;92.30
35700;DHT22;21818;51.078;12.108;2024-02-16T00:07:25;14.90;92.30
35700;DHT22;21818;51.078;12.108;2024-02-16T00:09:50;14.80;92.30
35700;DHT22;21818;51.078;12.108;2024-02-16T00:12:16;14.80;92.30
35700;DHT22;21818;51.078;12.108;2024-02-16T00:14:42;14.90;92.30
35700;DHT22;21818;51.078;12.108;2024-02-16T00:17:07;15.00;92.30
35700;DHT22;21818;51.078;12.108;2024-02-16T00:19:35;15.00;92.20
35700;DHT22;21818;51.078;12.108;2024-02-16T00:22:01;14.90;92.20
35700;DHT22;21818;51.078;12.108;2024-02-16T00:24:27;15.00;92.30
35700;DHT22;21818;51.078;12.108;2024-02-16T00:26:52;15.00;92.20
35700;DHT22;21818;51.078;12.108;2024-02-16T00:29:18;15.00;92.20
35700;DHT22;21818;51.078;12.108;2024-02-16T00:31:44;15.00;92.20
35700;DHT22;21818;51.078;12.108;2024-02-16T00:34:10;15.00;92.20
35700;DHT22;21818;51.078;12.108;2024-02-16T00:36:36;15.00;92.20
35700;DHT22;21818;51.078;12.108;2024-02-16T00:39:02;15.00;92.20
35700;DHT22;21818;51.078;12.108;2024-02-16T00:41:28;15.00;92.20
35700;DHT22;21818;51.078;12.108;2024-02-16T00:43:54;15.00;92.20
35700;DHT22;21818;51.078;12.108;2024-02-16T00:46:21;14.90;92.20
35700;DHT22;21818;51.078;12.108;2024-02-16T00:48:54;14.90;92.20
35700;DHT22;21818;51.078;12.108;2024-02-16T00:51:20;14.90;92.20
35700;DHT22;21818;51.078;12.108;2024-02-16T00:53:46;14.90;92.20
35700;DHT22;21818;51.078;12.108;2024-02-16T00:56:12;14.90;92.30
35700;DHT22;21818;51.078;12.108;2024-02-16T00:58:40;14.80;92.30
35700;DHT22;21818;51.078;12.108;2024-02-16T01:01:07;14.70;92.30
35700;DHT22;21818;51.078;12.108;2024-02-16T01:03:36;14.70;92.30
35700;DHT22;21818;51.078;12.108;2024-02-16T01:06:03;14.70;92.30
35700;DHT22;21818;51.078;12.108;2024-02-16T01:08:29;14.70;92.30
35700;DHT22;21818;51.078;12.108;2024-02-16T01:10:55;14.60;92.30
35700;DHT22;21818;51.078;12.108;2024-02-16T01:13:21;14.60;92.30
35700;DHT22;21818;51.078;12.108;2024-02-16T01:15:46;14.60;92.40
35700;DHT22;21818;51.078;12.108;2024-02-16T01:18:12;14.60;92.40
35700;DHT22;21818;51.078;12.108;2024-02-16T01:20:37;14.60;92.40
35700;DHT22;21818;51.078;12.108;2024-02-16T01:23:03;14.50;92.40
35700;DHT22;21818;51.078;12.108;2024-02-16T01:25:30;14.50;92.40
35700;DHT22;21818;51.078;12.108;2024-02-16T01:27:56;14.50;92.40
35700;DHT22;21818;51.078;12.108;2024-02-16T01:30:22;14.50;92.40
35700;DHT22;21818;51.078;12.108;2024-02-16T01:32:47;14.50;92.40
35700;DHT22;21818;51.078;12.108;2024-02-16T01:35:13;14.50;92.40
35700;DHT22;21818;51.078;12.108;2024-02-16T01:37:41;14.50;92.40
35700;DHT22;21818;51.078;12.108;2024-02-16T01:40:10;14.50;92.40
35700;DHT22;21818;51.078;12.108;2024-02-16T01:42:47;14.50;92.40
35700;DHT22;21818;51.078;12.108;2024-02-16T01:45:13;14.50;92.40
35700;DHT22;21818;51.078;12.108;2024-02-16T01:47:39;14.50;92.40
35700;DHT22;21818;51.078;12.108;2024-02-16T01:50:09;14.60;92.40
35700;DHT22;21818;51.078;12.108;2024-02-16T01:52:34;14.60;92.40
35700;DHT22;21818;51.078;12.108;2024-02-16T01:55:03;14.60;92.40
35700;DHT22;21818;51.078;12.108;2024-02-16T01:57:30;14.70;92.40
35700;DHT22;21818;51.078;12.108;2024-02-16T01:59:56;14.70;92.40
35700;DHT22;21818;51.078;12.108;2024-02-16T02:02:21;14.80;92.40
35700;DHT22;21818;51.078;12.108;2024-02-16T02:04:47;14.90;92.30
35700;DHT22;21818;51.078;12.108;2024-02-16T02:07:14;14.90;92.30
35700;DHT22;21818;51.078;12.108;2024-02-16T02:09:40;14.90;92.30
35700;DHT22;21818;51.078;12.108;2024-02-16T02:12:07;14.90;92.30
35700;DHT22;21818;51.078;12.108;2024-02-16T02:14:34;14.90;92.30
35700;DHT22;21818;51.078;12.108;2024-02-16T02:16:59;14.80;92.30
35700;DHT22;21818;51.078;12.108;2024-02-16T02:19:26;14.80;92.30
35700;DHT22;21818;51.078;12.108;2024-02-16T02:21:51;14.80;92.30
35700;DHT22;21818;51.078;12.108;2024-02-16T02:24:17;14.80;92.30
35700;DHT22;21818;51.078;12.108;2024-02-16T02:26:43;14.80;92.30
35700;DHT22;21818;51.078;12.108;2024-02-16T02:29:08;14.80;92.30
35700;DHT22;21818;51.078;12.108;2024-02-16T02:31:34;14.80;92.30
35700;DHT22;21818;51.078;12.108;2024-02-16T02:34:00;14.80;92.40
35700;DHT22;21818;51.078;12.108;2024-02-16T02:36:26;14.80;92.30
35700;DHT22;21818;51.078;12.108;2024-02-16T02:38:51;14.90;92.40
35700;DHT22;21818;51.078;12.108;2024-02-16T02:41:17;14.90;92.30
35700;DHT22;21818;51.078;12.108;2024-02-16T02:43:45;14.90;92.20
35700;DHT22;21818;51.078;12.108;2024-02-16T02:46:15;14.90;92.20
35700;DHT22;21818;51.078;12.108;2024-02-16T02:48:42;14.90;92.30
35700;DHT22;21818;51.078;12.108;2024-02-16T02:51:08;14.90;92.30
35700;DHT22;21818;51.078;12.108;2024-02-16T02:53:35;14.90;92.20
35700;DHT22;21818;51.078;12.108;2024-02-16T02:56:00;15.00;92.20
35700;DHT22;21818;51.078;12.108;2024-02-16T02:58:26;15.00;92.20
35700;DHT22;21818;51.078;12.108;2024-02-16T03:00:52;15.00;92.20
35700;DHT22;21818;51.078;12.108;2024-02-16T03:03:17;15.10;92.10
35700;DHT22;21818;51.078;12.108;2024-02-16T03:05:43;15.10;92.10
35700;DHT22;21818;51.078;12.108;2024-02-16T03:08:08;15.10;92.10
35700;DHT22;21818;51.078;12.108;2024-02-16T03:10:36;15.10;92.10
35700;DHT22;21818;51.078;12.108;2024-02-16T03:13:02;15.10;92.10
35700;DHT22;21818;51.078;12.108;2024-02-16T03:15:28;15.10;92.10
35700;DHT22;21818;51.078;12.108;2024-02-16T03:17:55;15.10;92.00
35700;DHT22;21818;51.078;12.108;2024-02-16T03:20:20;15.10;91.90
35700;DHT22;21818;51.078;12.108;2024-02-16T03:22:47;15.10;92.00
35700;DHT22;21818;51.078;12.108;2024-02-16T03:25:13;15.10;92.00
35700;DHT22;21818;51.078;12.108;2024-02-16T03:27:40;15.10;92.00
35700;DHT22;21818;51.078;12.108;2024-02-16T03:30:07;15.10;91.90
35700;DHT22;21818;51.078;12.108;2024-02-16T03:32:33;15.00;91.90
35700;DHT22;21818;51.078;12.108;2024-02-16T03:34:59;15.00;91.90
35700;DHT22;21818;51.078;12.108;2024-02-16T03:37:25;15.00;91.90
35700;DHT22;21818;51.078;12.108;2024-02-16T03:39:50;15.00;92.00
35700;DHT22;21818;51.078;12.108;2024-02-16T03:42:16;14.90;91.90
35700;DHT22;21818;51.078;12.108;2024-02-16T03:44:43;14.90;91.90
35700;DHT22;21818;51.078;12.108;2024-02-16T03:47:09;14.90;91.90
35700;DHT22;21818;51.078;12.108;2024-02-16T03:49:35;14.90;91.90
35700;DHT22;21818;51.078;12.108;2024-02-16T03:52:01;14.80;91.90
35700;DHT22;21818;51.078;12.108;2024-02-16T03:54:27;14.80;91.90
35700;DHT22;21818;51.078;12.108;2024-02-16T03:56:54;14.80;92.00
35700;DHT22;21818;51.078;12.108;2024-02-16T03:59:19;14.80;92.00
35700;DHT22;21818;51.078;12.108;2024-02-16T04:01:45;14.80;91.90
35700;DHT22;21818;51.078;12.108;2024-02-16T04:04:11;14.90;92.00
35700;DHT22;21818;51.078;12.108;2024-02-16T04:06:37;14.90;91.90
35700;DHT22;21818;51.078;12.108;2024-02-16T04:09:03;14.90;91.90
35700;DHT22;21818;51.078;12.108;2024-02-16T04:11:31;14.90;91.90
35700;DHT22;21818;51.078;12.108;2024-02-16T04:13:57;14.80;91.90
35700;DHT22;21818;51.078;12.108;2024-02-16T04:16:23;14.90;92.00
35700;DHT22;21818;51.078;12.108;2024-02-16T04:18:50;14.80;92.00
35700;DHT22;21818;51.078;12.108;2024-02-16T04:21:16;14.80;92.00
35700;DHT22;21818;51.078;12.108;2024-02-16T04:23:42;14.80;92.00
35700;DHT22;21818;51.078;12.108;2024-02-16T04:26:08;14.80;92.00
35700;DHT22;21818;51.078;12.108;2024-02-16T04:28:33;14.80;92.00
35700;DHT22;21818;51.078;12.108;2024-02-16T04:30:59;14.80;92.00
35700;DHT22;21818;51.078;12.108;2024-02-16T04:33:25;14.80;92.00
35700;DHT22;21818;51.078;12.108;2024-02-16T04:35:50;14.80;92.00
35700;DHT22;21818;51.078;12.108;2024-02-16T04:38:17;14.80;92.10
35700;DHT22;21818;51.078;12.108;2024-02-16T04:40:42;14.80;92.10
35700;DHT22;21818;51.078;12.108;2024-02-16T04:43:08;14.80;92.10
35700;DHT22;21818;51.078;12.108;2024-02-16T04:45:33;14.80;92.00
35700;DHT22;21818;51.078;12.108;2024-02-16T04:48:04;14.80;92.10
35700;DHT22;21818;51.078;12.108;2024-02-16T04:50:31;14.80;92.10
35700;DHT22;21818;51.078;12.108;2024-02-16T04:52:57;14.90;92.10
35700;DHT22;21818;51.078;12.108;2024-02-16T04:55:22;14.90;92.10
35700;DHT22;21818;51.078;12.108;2024-02-16T04:57:48;14.90;92.10
35700;DHT22;21818;51.078;12.108;2024-02-16T05:00:14;14.90;92.00
35700;DHT22;21818;51.078;12.108;2024-02-16T05:02:39;14.90;92.10
35700;DHT22;21818;51.078;12.108;2024-02-16T05:05:05;15.00;92.00
35700;DHT22;21818;51.078;12.108;2024-02-16T05:07:31;15.00;92.00
35700;DHT22;21818;51.078;12.108;2024-02-16T05:09:56;14.90;92.00
35700;DHT22;21818;51.078;12.108;2024-02-16T05:12:24;14.90;92.00
35700;DHT22;21818;51.078;12.108;2024-02-16T05:14:50;14.90;92.00
35700;DHT22;21818;51.078;12.108;2024-02-16T05:17:16;14.90;92.00
35700;DHT22;21818;51.078;12.108;2024-02-16T05:19:42;14.90;92.00
35700;DHT22;21818;51.078;12.108;2024-02-16T05:22:07;14.90;92.00
35700;DHT22;21818;51.078;12.108;2024-02-16T05:24:33;14.90;92.00
35700;DHT22;21818;51.078;12.108;2024-02-16T05:26:58;15.00;92.00
35700;DHT22;21818;51.078;12.108;2024-02-16T05:29:25;15.00;92.00
35700;DHT22;21818;51.078;12.108;2024-02-16T05:31:52;15.00;92.00
35700;DHT22;21818;51.078;12.108;2024-02-16T05:34:17;15.00;91.90
35700;DHT22;21818;51.078;12.108;2024-02-16T05:36:43;15.10;91.90
35700;DHT22;21818;51.078;12.108;2024-02-16T05:39:09;15.10;91.90
35700;DHT22;21818;51.078;12.108;2024-02-16T05:41:52;15.10;91.80
35700;DHT22;21818;51.078;12.108;2024-02-16T05:44:18;15.10;91.80
35700;DHT22;21818;51.078;12.108;2024-02-16T05:46:45;15.10;91.80
35700;DHT22;21818;51.078;12.108;2024-02-16T05:49:11;15.10;91.80
35700;DHT22;21818;51.078;12.108;2024-02-16T05:51:37;15.10;91.70
35700;DHT22;21818;51.078;12.108;2024-02-16T05:54:04;15.10;91.70
35700;DHT22;21818;51.078;12.108;2024-02-16T05:56:30;15.20;91.70
35700;DHT22;21818;51.078;12.108;2024-02-16T05:58:59;15.20;91.60
35700;DHT22;21818;51.078;12.108;2024-02-16T06:01:25;15.20;91.60
35700;DHT22;21818;51.078;12.108;2024-02-16T06:03:50;15.20;91.60
35700;DHT22;21818;51.078;12.108;2024-02-16T06:06:16;15.20;91.50
35700;DHT22;21818;51.078;12.108;2024-02-16T06:08:41;15.20;91.60
35700;DHT22;21818;51.078;12.108;2024-02-16T06:11:07;15.20;91.50
35700;DHT22;21818;51.078;12.108;2024-02-16T06:13:33;15.20;91.50
35700;DHT22;21818;51.078;12.108;2024-02-16T06:15:59;15.20;91.50
35700;DHT22;21818;51.078;12.108;2024-02-16T06:18:24;15.20;91.50
35700;DHT22;21818;51.078;12.108;2024-02-16T06:20:50;15.20;91.40
35700;DHT22;21818;51.078;12.108;2024-02-16T06:23:15;15.20;91.40
35700;DHT22;21818;51.078;12.108;2024-02-16T06:25:42;15.20;91.40
35700;DHT22;21818;51.078;12.108;2024-02-16T06:28:08;15.20;91.30
35700;DHT22;21818;51.078;12.108;2024-02-16T06:30:34;15.10;91.30
35700;DHT22;21818;51.078;12.108;2024-02-16T06:32:59;15.20;91.40
35700;DHT22;21818;51.078;12.108;2024-02-16T06:35:26;15.10;91.30
35700;DHT22;21818;51.078;12.108;2024-02-16T06:37:51;15.20;91.30
35700;DHT22;21818;51.078;12.108;2024-02-16T06:40:17;15.20;91.30
35700;DHT22;21818;51.078;12.108;2024-02-16T06:42:43;15.20;91.20
35700;DHT22;21818;51.078;12.108;2024-02-16T06:45:08;15.20;91.30
35700;DHT22;21818;51.078;12.108;2024-02-16T06:47:34;15.20;91.20
35700;DHT22;21818;51.078;12.108;2024-02-16T06:50:00;15.20;91.10
35700;DHT22;21818;51.078;12.108;2024-02-16T06:52:25;15.20;91.10
35700;DHT22;21818;51.078;12.108;2024-02-16T06:54:51;15.20;91.00
35700;DHT22;21818;51.078;12.108;2024-02-16T06:57:17;15.20;91.00
35700;DHT22;21818;51.078;12.108;2024-02-16T06:59:43;15.20;90.90
35700;DHT22;21818;51.078;12.108;2024-02-16T07:02:08;15.20;90.90
35700;DHT22;21818;51.078;12.108;2024-02-16T07:04:36;15.20;90.90
35700;DHT22;21818;51.078;12.108;2024-02-16T07:07:01;15.20;90.90
35700;DHT22;21818;51.078;12.108;2024-02-16T07:09:27;15.20;90.90
35700;DHT22;21818;51.078;12.108;2024-02-16T07:11:53;15.20;90.80
35700;DHT22;21818;51.078;12.108;2024-02-16T07:14:18;15.20;90.70
35700;DHT22;21818;51.078;12.108;2024-02-16T07:16:44;15.30;90.70
35700;DHT22;21818;51.078;12.108;2024-02-16T07:19:09;15.30;90.70
35700;DHT22;21818;51.078;12.108;2024-02-16T07:21:35;15.30;90.70
35700;DHT22;21818;51.078;12.108;2024-02-16T07:24:01;15.30;90.70
35700;DHT22;21818;51.078;12.108;2024-02-16T07:26:27;15.30;90.60
35700;DHT22;21818;51.078;12.108;2024-02-16T07:28:52;15.40;90.50
35700;DHT22;21818;51.078;12.108;2024-02-16T07:31:18;15.50;90.40
35700;DHT22;21818;51.078;12.108;2024-02-16T07:33:44;15.60;90.40
35700;DHT22;21818;51.078;12.108;2024-02-16T07:36:09;15.60;90.40
35700;DHT22;21818;51.078;12.108;2024-02-16T07:38:35;15.60;90.30
35700;DHT22;21818;51.078;12.108;2024-02-16T07:41:01;15.60;90.20
35700;DHT22;21818;51.078;12.108;2024-02-16T07:43:27;15.70;90.20
35700;DHT22;21818;51.078;12.108;2024-02-16T07:45:53;15.70;90.20
35700;DHT22;21818;51.078;12.108;2024-02-16T07:48:20;15.70;90.20
35700;DHT22;21818;51.078;12.108;2024-02-16T07:50:47;15.70;90.10
35700;DHT22;21818;51.078;12.108;2024-02-16T07:53:12;15.80;90.10
35700;DHT22;21818;51.078;12.108;2024-02-16T07:55:38;15.80;90.10
35700;DHT22;21818;51.078;12.108;2024-02-16T07:58:03;15.80;90.10
35700;DHT22;21818;51.078;12.108;2024-02-16T08:00:29;15.80;90.10
35700;DHT22;21818;51.078;12.108;2024-02-16T08:02:54;15.80;90.00
35700;DHT22;21818;51.078;12.108;2024-02-16T08:05:20;15.80;90.00
35700;DHT22;21818;51.078;12.108;2024-02-16T08:07:47;15.80;90.00
35700;DHT22;21818;51.078;12.108;2024-02-16T08:10:13;15.80;90.00
35700;DHT22;21818;51.078;12.108;2024-02-16T08:12:39;15.80;90.00
35700;DHT22;21818;51.078;12.108;2024-02-16T08:15:06;15.80;90.00
35700;DHT22;21818;51.078;12.108;2024-02-16T08:17:36;15.80;89.90
35700;DHT22;21818;51.078;12.108;2024-02-16T08:20:02;15.80;89.80
35700;DHT22;21818;51.078;12.108;2024-02-16T08:22:28;15.80;89.80
35700;DHT22;21818;51.078;12.108;2024-02-16T08:24:53;15.80;89.90
35700;DHT22;21818;51.078;12.108;2024-02-16T08:27:19;15.80;90.00
35700;DHT22;21818;51.078;12.108;2024-02-16T08:29:45;15.70;90.00
35700;DHT22;21818;51.078;12.108;2024-02-16T08:32:11;15.70;90.00
35700;DHT22;21818;51.078;12.108;2024-02-16T08:34:37;15.70;90.00
35700;DHT22;21818;51.078;12.108;2024-02-16T08:37:03;15.70;90.00
35700;DHT22;21818;51.078;12.108;2024-02-16T08:39:30;15.70;90.00
35700;DHT22;21818;51.078;12.108;2024-02-16T08:41:56;15.70;90.00
35700;DHT22;21818;51.078;12.108;2024-02-16T08:44:21;15.70;90.00
35700;DHT22;21818;51.078;12.108;2024-02-16T08:46:47;15.70;90.00
35700;DHT22;21818;51.078;12.108;2024-02-16T08:49:15;15.70;90.00
35700;DHT22;21818;51.078;12.108;2024-02-16T08:51:40;15.70;90.00
35700;DHT22;21818;51.078;12.108;2024-02-16T08:54:06;15.70;90.00
35700;DHT22;21818;51.078;12.108;2024-02-16T08:56:32;15.70;90.00
35700;DHT22;21818;51.078;12.108;2024-02-16T08:58:59;15.70;90.00
35700;DHT22;21818;51.078;12.108;2024-02-16T09:01:36;15.70;90.00
35700;DHT22;21818;51.078;12.108;2024-02-16T09:04:02;15.80;90.10
35700;DHT22;21818;51.078;12.108;2024-02-16T09:06:29;15.90;89.60
35700;DHT22;21818;51.078;12.108;2024-02-16T09:08:55;15.90;89.50
35700;DHT22;21818;51.078;12.108;2024-02-16T09:11:22;16.00;89.40
35700;DHT22;21818;51.078;12.108;2024-02-16T09:13:47;16.00;89.30
35700;DHT22;21818;51.078;12.108;2024-02-16T09:16:13;16.10;89.20
35700;DHT22;21818;51.078;12.108;2024-02-16T09:18:39;16.10;89.20
35700;DHT22;21818;51.078;12.108;2024-02-16T09:21:05;16.10;89.10
35700;DHT22;21818;51.078;12.108;2024-02-16T09:23:32;16.10;89.10
35700;DHT22;21818;51.078;12.108;2024-02-16T09:25:58;16.10;89.00
35700;DHT22;21818;51.078;12.108;2024-02-16T09:28:30;16.10;88.90
35700;DHT22;21818;51.078;12.108;2024-02-16T09:30:56;16.10;88.90
35700;DHT22;21818;51.078;12.108;2024-02-16T09:33:22;16.00;89.00
35700;DHT22;21818;51.078;12.108;2024-02-16T09:35:48;16.00;89.10
35700;DHT22;21818;51.078;12.108;2024-02-16T09:38:14;16.00;89.00
35700;DHT22;21818;51.078;12.108;2024-02-16T09:40:39;16.00;89.00
35700;DHT22;21818;51.078;12.108;2024-02-16T09:43:05;16.00;89.00
35700;DHT22;21818;51.078;12.108;2024-02-16T09:45:32;16.00;88.90
35700;DHT22;21818;51.078;12.108;2024-02-16T09:47:58;16.00;89.00
35700;DHT22;21818;51.078;12.108;2024-02-16T09:50:24;16.00;88.90
35700;DHT22;21818;51.078;12.108;2024-02-16T09:52:52;16.10;88.80
35700;DHT22;21818;51.078;12.108;2024-02-16T09:55:19;16.10;88.70
35700;DHT22;21818;51.078;12.108;2024-02-16T09:57:45;16.10;88.70
35700;DHT22;21818;51.078;12.108;2024-02-16T10:00:11;16.10;88.60
35700;DHT22;21818;51.078;12.108;2024-02-16T10:02:45;16.20;88.70
35700;DHT22;21818;51.078;12.108;2024-02-16T10:05:14;16.20;88.60
35700;DHT22;21818;51.078;12.108;2024-02-16T10:07:40;16.20;88.50
35700;DHT22;21818;51.078;12.108;2024-02-16T10:10:06;16.20;88.50
35700;DHT22;21818;51.078;12.108;2024-02-16T10:12:32;16.20;88.50
35700;DHT22;21818;51.078;12.108;2024-02-16T10:14:57;16.20;88.50
35700;DHT22;21818;51.078;12.108;2024-02-16T10:17:25;16.20;88.50
35700;DHT22;21818;51.078;12.108;2024-02-16T10:19:59;16.20;88.40
35700;DHT22;21818;51.078;12.108;2024-02-16T10:22:31;16.20;88.40
35700;DHT22;21818;51.078;12.108;2024-02-16T10:25:09;16.20;88.10
35700;DHT22;21818;51.078;12.108;2024-02-16T10:27:37;16.20;88.40
35700;DHT22;21818;51.078;12.108;2024-02-16T10:30:05;16.20;88.30
35700;DHT22;21818;51.078;12.108;2024-02-16T10:32:38;16.20;88.30
35700;DHT22;21818;51.078;12.108;2024-02-16T10:35:06;16.30;88.40
35700;DHT22;21818;51.078;12.108;2024-02-16T10:37:34;16.30;88.30
35700;DHT22;21818;51.078;12.108;2024-02-16T10:40:00;16.30;88.20
35700;DHT22;21818;51.078;12.108;2024-02-16T10:42:27;16.30;88.10
35700;DHT22;21818;51.078;12.108;2024-02-16T10:44:55;16.30;88.00
35700;DHT22;21818;51.078;12.108;2024-02-16T10:47:20;16.30;87.90
35700;DHT22;21818;51.078;12.108;2024-02-16T10:49:46;16.30;87.80
35700;DHT22;21818;51.078;12.108;2024-02-16T10:52:13;16.30;87.80
35700;DHT22;21818;51.078;12.108;2024-02-16T10:54:40;16.30;87.70
35700;DHT22;21818;51.078;12.108;2024-02-16T10:57:10;16.30;87.70
35700;DHT22;21818;51.078;12.108;2024-02-16T10:59:42;16.30;87.60
35700;DHT22;21818;51.078;12.108;2024-02-16T11:02:10;16.30;87.60
35700;DHT22;21818;51.078;12.108;2024-02-16T11:04:37;16.30;87.60
35700;DHT22;21818;51.078;12.108;2024-02-16T11:07:14;16.40;87.70
35700;DHT22;21818;51.078;12.108;2024-02-16T11:09:41;16.40;87.60
35700;DHT22;21818;51.078;12.108;2024-02-16T11:12:08;16.40;87.60
35700;DHT22;21818;51.078;12.108;2024-02-16T11:17:19;16.40;87.50
35700;DHT22;21818;51.078;12.108;2024-02-16T11:19:46;16.50;87.50
35700;DHT22;21818;51.078;12.108;2024-02-16T11:22:16;16.50;87.40
35700;DHT22;21818;51.078;12.108;2024-02-16T11:24:44;16.50;87.40
35700;DHT22;21818;51.078;12.108;2024-02-16T11:27:10;16.50;87.30
35700;DHT22;21818;51.078;12.108;2024-02-16T11:29:37;16.60;87.30
35700;DHT22;21818;51.078;12.108;2024-02-16T11:32:04;16.60;87.30
35700;DHT22;21818;51.078;12.108;2024-02-16T11:34:31;16.60;87.20
35700;DHT22;21818;51.078;12.108;2024-02-16T11:36:58;16.60;87.20
35700;DHT22;21818;51.078;12.108;2024-02-16T11:39:25;16.60;87.20
35700;DHT22;21818;51.078;12.108;2024-02-16T11:42:10;16.60;87.10
35700;DHT22;21818;51.078;12.108;2024-02-16T11:44:37;16.70;87.00
35700;DHT22;21818;51.078;12.108;2024-02-16T11:47:06;16.70;87.00
35700;DHT22;21818;51.078;12.108;2024-02-16T11:49:34;16.70;87.00
35700;DHT22;21818;51.078;12.108;2024-02-16T11:52:00;16.70;86.90
35700;DHT22;21818;51.078;12.108;2024-02-16T11:54:25;16.80;86.90
35700;DHT22;21818;51.078;12.108;2024-02-16T11:56:52;16.80;86.90
35700;DHT22;21818;51.078;12.108;2024-02-16T11:59:18;16.80;86.80
35700;DHT22;21818;51.078;12.108;2024-02-16T12:01:59;16.80;86.70
35700;DHT22;21818;51.078;12.108;2024-02-16T12:04:27;16.80;86.60
35700;DHT22;21818;51.078;12.108;2024-02-16T12:06:56;16.80;86.60
35700;DHT22;21818;51.078;12.108;2024-02-16T12:09:23;16.80;86.60
35700;DHT22;21818;51.078;12.108;2024-02-16T12:11:49;16.80;86.60
35700;DHT22;21818;51.078;12.108;2024-02-16T12:14:16;16.80;86.50
35700;DHT22;21818;51.078;12.108;2024-02-16T12:16:46;16.80;86.50
35700;DHT22;21818;51.078;12.108;2024-02-16T12:19:12;16.80;86.50
35700;DHT22;21818;51.078;12.108;2024-02-16T12:21:38;16.80;86.40
35700;DHT22;21818;51.078;12.108;2024-02-16T12:24:04;16.90;86.40
35700;DHT22;21818;51.078;12.108;2024-02-16T12:26:30;16.90;86.40
35700;DHT22;21818;51.078;12.108;2024-02-16T12:28:55;16.90;86.30
35700;DHT22;21818;51.078;12.108;2024-02-16T12:31:21;16.90;86.20
35700;DHT22;21818;51.078;12.108;2024-02-16T12:33:47;16.90;86.20
35700;DHT22;21818;51.078;12.108;2024-02-16T12:36:13;16.90;86.10
35700;DHT22;21818;51.078;12.108;2024-02-16T12:38:40;17.00;86.10
35700;DHT22;21818;51.078;12.108;2024-02-16T12:41:05;17.00;86.10
35700;DHT22;21818;51.078;12.108;2024-02-16T12:43:31;16.90;86.00
35700;DHT22;21818;51.078;12.108;2024-02-16T12:45:57;17.00;86.00
35700;DHT22;21818;51.078;12.108;2024-02-16T12:48:25;17.00;86.00
35700;DHT22;21818;51.078;12.108;2024-02-16T12:50:51;17.00;85.90
35700;DHT22;21818;51.078;12.108;2024-02-16T12:53:17;17.10;85.80
35700;DHT22;21818;51.078;12.108;2024-02-16T12:55:43;17.10;85.70
35700;DHT22;21818;51.078;12.108;2024-02-16T12:58:09;17.10;85.70
35700;DHT22;21818;51.078;12.108;2024-02-16T13:00:35;17.20;85.70
35700;DHT22;21818;51.078;12.108;2024-02-16T13:03:00;17.20;85.50
35700;DHT22;21818;51.078;12.108;2024-02-16T13:05:26;17.20;85.40
35700;DHT22;21818;51.078;12.108;2024-02-16T13:07:52;17.30;85.40
35700;DHT22;21818;51.078;12.108;2024-02-16T13:10:18;17.30;85.40
35700;DHT22;21818;51.078;12.108;2024-02-16T13:12:44;17.60;85.10
35700;DHT22;21818;51.078;12.108;2024-02-16T13:15:10;17.70;84.70
35700;DHT22;21818;51.078;12.108;2024-02-16T13:17:36;17.70;84.60
35700;DHT22;21818;51.078;12.108;2024-02-16T13:20:02;17.70;84.50
35700;DHT22;21818;51.078;12.108;2024-02-16T13:22:35;17.70;84.50
35700;DHT22;21818;51.078;12.108;2024-02-16T13:25:05;17.80;84.40
35700;DHT22;21818;51.078;12.108;2024-02-16T13:27:33;17.90;84.30
35700;DHT22;21818;51.078;12.108;2024-02-16T13:30:02;17.90;84.10
35700;DHT22;21818;51.078;12.108;2024-02-16T13:32:28;18.00;84.00
35700;DHT22;21818;51.078;12.108;2024-02-16T13:34:53;18.00;83.90
35700;DHT22;21818;51.078;12.108;2024-02-16T13:37:19;18.00;83.80
35700;DHT22;21818;51.078;12.108;2024-02-16T13:39:44;18.10;83.80
35700;DHT22;21818;51.078;12.108;2024-02-16T13:42:12;18.00;83.70
35700;DHT22;21818;51.078;12.108;2024-02-16T13:44:39;18.00;83.70
35700;DHT22;21818;51.078;12.108;2024-02-16T13:47:04;18.00;83.80
35700;DHT22;21818;51.078;12.108;2024-02-16T13:49:30;17.90;83.70
35700;DHT22;21818;51.078;12.108;2024-02-16T13:51:56;17.90;83.80
35700;DHT22;21818;51.078;12.108;2024-02-16T13:54:25;17.90;83.90
35700;DHT22;21818;51.078;12.108;2024-02-16T13:56:50;17.90;83.80
35700;DHT22;21818;51.078;12.108;2024-02-16T13:59:16;17.90;83.80
35700;DHT22;21818;51.078;12.108;2024-02-16T14:01:41;17.80;83.70
35700;DHT22;21818;51.078;12.108;2024-02-16T14:04:08;17.90;83.70
35700;DHT22;21818;51.078;12.108;2024-02-16T14:06:33;17.90;83.60
35700;DHT22;21818;51.078;12.108;2024-02-16T14:09:01;17.90;83.60
35700;DHT22;21818;51.078;12.108;2024-02-16T14:11:26;17.90;83.50
35700;DHT22;21818;51.078;12.108;2024-02-16T14:13:52;17.90;83.60
35700;DHT22;21818;51.078;12.108;2024-02-16T14:16:17;17.80;83.60
35700;DHT22;21818;51.078;12.108;2024-02-16T14:18:43;17.80;83.60
35700;DHT22;21818;51.078;12.108;2024-02-16T14:21:08;17.80;83.60
35700;DHT22;21818;51.078;12.108;2024-02-16T14:23:35;17.80;83.70
35700;DHT22;21818;51.078;12.108;2024-02-16T14:26:01;17.80;83.60
35700;DHT22;21818;51.078;12.108;2024-02-16T14:28:26;17.70;83.60
35700;DHT22;21818;51.078;12.108;2024-02-16T14:30:52;17.80;83.60
35700;DHT22;21818;51.078;12.108;2024-02-16T14:33:18;17.70;83.60
35700;DHT22;21818;51.078;12.108;2024-02-16T14:35:43;17.80;83.50
35700;DHT22;21818;51.078;12.108;2024-02-16T14:38:10;17.80;83.40
35700;DHT22;21818;51.078;12.108;2024-02-16T14:40:36;17.90;83.30
35700;DHT22;21818;51.078;12.108;2024-02-16T14:43:02;18.00;83.10
35700;DHT22;21818;51.078;12.108;2024-02-16T14:45:28;18.00;83.10
35700;DHT22;21818;51.078;12.108;2024-02-16T14:47:54;17.90;83.20
35700;DHT22;21818;51.078;12.108;2024-02-16T14:50:19;17.90;83.20
35700;DHT22;21818;51.078;12.108;2024-02-16T14:52:45;17.80;83.30
35700;DHT22;21818;51.078;12.108;2024-02-16T14:55:11;17.80;83.40
35700;DHT22;21818;51.078;12.108;2024-02-16T14:57:42;17.80;83.40
35700;DHT22;21818;51.078;12.108;2024-02-16T15:00:09;17.90;83.30
35700;DHT22;21818;51.078;12.108;2024-02-16T15:02:36;17.90;83.10
35700;DHT22;21818;51.078;12.108;2024-02-16T15:05:06;17.90;83.10
35700;DHT22;21818;51.078;12.108;2024-02-16T15:07:32;17.80;83.10
35700;DHT22;21818;51.078;12.108;2024-02-16T15:09:58;17.80;83.20
35700;DHT22;21818;51.078;12.108;2024-02-16T15:12:24;17.80;83.30